sensor_id;sensor_type;location;lat;lon;timestamp;pressure;altitude;pressure_sealevel;temperature;humidity
71774;BME280;59607;52.130;5.430;2023-03-13T00:01:43;100286.09;;;9.32;100.00
71774;BME280;59607;52.130;5.430;2023-03-13T00:04:11;100268.91;;;9.30;100.00
71774;BME280;59607;52.130;5.430;2023-03-13T00:06:51;100261.06;;;9.30;100.00
71774;BME280;59607;52.130;5.430;2023-03-13T00:09:18;100253.22;;;9.30;100.00
71774;BME280;59607;52.130;5.430;2023-03-13T00:11:47;100233.28;;;9.29;100.00
71774;BME280;59607;52.130;5.430;2023-03-13T00:14:14;100227.03;;;9.30;100.00
71774;BME280;59607;52.130;5.430;2023-03-13T00:16:43;100227.53;;;9.33;100.00
71774;BME280;59607;52.130;5.430;2023-03-13T00:19:10;100229.16;;;9.34;100.00
71774;BME280;59607;52.130;5.430;2023-03-13T00:21:36;100226.72;;;9.33;100.00
71774;BME280;59607;52.130;5.430;2023-03-13T00:24:13;100219.34;;;9.36;100.00
71774;BME280;59607;52.130;5.430;2023-03-13T00:26:39;100213.13;;;9.37;100.00
71774;BME280;59607;52.130;5.430;2023-03-13T00:29:06;100205.13;;;9.39;100.00
71774;BME280;59607;52.130;5.430;2023-03-13T00:31:32;100197.25;;;9.39;100.00
71774;BME280;59607;52.130;5.430;2023-03-13T00:34:02;100194.16;;;9.35;100.00
71774;BME280;59607;52.130;5.430;2023-03-13T00:36:34;100186.16;;;9.37;100.00
71774;BME280;59607;52.130;5.430;2023-03-13T00:39:09;100174.19;;;9.34;100.00
71774;BME280;59607;52.130;5.430;2023-03-13T00:41:41;100169.63;;;9.36;100.00
71774;BME280;59607;52.130;5.430;2023-03-13T00:44:09;100157.53;;;9.35;100.00
71774;BME280;59607;52.130;5.430;2023-03-13T00:46:38;100152.28;;;9.35;100.00
71774;BME280;59607;52.130;5.430;2023-03-13T00:49:05;100139.72;;;9.31;100.00
71774;BME280;59607;52.130;5.430;2023-03-13T00:51:31;100135.94;;;9.33;100.00
71774;BME280;59607;52.130;5.430;2023-03-13T00:54:01;100137.56;;;9.34;100.00
71774;BME280;59607;52.130;5.430;2023-03-13T00:56:30;100124.66;;;9.33;100.00
71774;BME280;59607;52.130;5.430;2023-03-13T00:58:58;100123.03;;;9.32;100.00
71774;BME280;59607;52.130;5.430;2023-03-13T01:01:34;100111.09;;;9.29;100.00
71774;BME280;59607;52.130;5.430;2023-03-13T01:04:05;100103.44;;;9.28;100.00
71774;BME280;59607;52.130;5.430;2023-03-13T01:06:35;100100.81;;;9.28;100.00
71774;BME280;59607;52.130;5.430;2023-03-13T01:09:12;100097.38;;;9.27;100.00
71774;BME280;59607;52.130;5.430;2023-03-13T01:11:43;100083.63;;;9.25;100.00
71774;BME280;59607;52.130;5.430;2023-03-13T01:14:17;100084.63;;;9.24;100.00
71774;BME280;59607;52.130;5.430;2023-03-13T01:16:44;100075.13;;;9.23;100.00
71774;BME280;59607;52.130;5.430;2023-03-13T01:19:13;100072.06;;;9.19;100.00
71774;BME280;59607;52.130;5.430;2023-03-13T01:21:44;100062.22;;;9.21;100.00
71774;BME280;59607;52.130;5.430;2023-03-13T01:24:11;100059.28;;;9.24;100.00
71774;BME280;59607;52.130;5.430;2023-03-13T01:26:40;100044.38;;;9.25;100.00
71774;BME280;59607;52.130;5.430;2023-03-13T01:29:16;100042.59;;;9.25;100.00
71774;BME280;59607;52.130;5.430;2023-03-13T01:31:48;100032.13;;;9.25;100.00
71774;BME280;59607;52.130;5.430;2023-03-13T01:34:14;100030.00;;;9.29;100.00
71774;BME280;59607;52.130;5.430;2023-03-13T01:36:44;100023.41;;;9.33;100.00
71774;BME280;59607;52.130;5.430;2023-03-13T01:39:19;100016.69;;;9.39;100.00
71774;BME280;59607;52.130;5.430;2023-03-13T01:41:59;100011.09;;;9.42;100.00
71774;BME280;59607;52.130;5.430;2023-03-13T01:44:26;99997.00;;;9.43;100.00
71774;BME280;59607;52.130;5.430;2023-03-13T01:46:59;99995.22;;;9.44;100.00
71774;BME280;59607;52.130;5.430;2023-03-13T01:49:30;99987.19;;;9.45;100.00
71774;BME280;59607;52.130;5.430;2023-03-13T01:52:09;99978.31;;;9.46;100.00
71774;BME280;59607;52.130;5.430;2023-03-13T01:54:51;99971.91;;;9.49;100.00
71774;BME280;59607;52.130;5.430;2023-03-13T01:57:36;99974.03;;;9.54;100.00
71774;BME280;59607;52.130;5.430;2023-03-13T02:00:08;99968.44;;;9.57;100.00
71774;BME280;59607;52.130;5.430;2023-03-13T02:02:46;99963.81;;;9.59;100.00
71774;BME280;59607;52.130;5.430;2023-03-13T02:05:19;99946.13;;;9.61;100.00
71774;BME280;59607;52.130;5.430;2023-03-13T02:08:12;99942.16;;;9.65;100.00
71774;BME280;59607;52.130;5.430;2023-03-13T02:10:49;99932.31;;;9.67;100.00
71774;BME280;59607;52.130;5.430;2023-03-13T02:13:18;99918.06;;;9.70;100.00
71774;BME280;59607;52.130;5.430;2023-03-13T02:15:46;99916.88;;;9.72;100.00
71774;BME280;59607;52.130;5.430;2023-03-13T02:18:16;99901.00;;;9.74;100.00
71774;BME280;59607;52.130;5.430;2023-03-13T02:20:43;99899.81;;;9.77;100.00
71774;BME280;59607;52.130;5.430;2023-03-13T02:26:18;99873.09;;;9.81;100.00
71774;BME280;59607;52.130;5.430;2023-03-13T02:28:45;99875.34;;;9.84;100.00
71774;BME280;59607;52.130;5.430;2023-03-13T02:31:27;99868.09;;;9.86;100.00
71774;BME280;59607;52.130;5.430;2023-03-13T02:33:59;99876.41;;;9.90;100.00
71774;BME280;59607;52.130;5.430;2023-03-13T02:36:29;99866.75;;;9.91;100.00
71774;BME280;59607;52.130;5.430;2023-03-13T02:39:01;99863.97;;;9.92;100.00
71774;BME280;59607;52.130;5.430;2023-03-13T02:41:30;99858.72;;;9.92;100.00
71774;BME280;59607;52.130;5.430;2023-03-13T02:43:59;99851.47;;;9.94;100.00
71774;BME280;59607;52.130;5.430;2023-03-13T02:46:26;99855.38;;;9.98;100.00
71774;BME280;59607;52.130;5.430;2023-03-13T02:48:54;99845.34;;;10.02;100.00
71774;BME280;59607;52.130;5.430;2023-03-13T02:51:31;99843.78;;;10.08;100.00
71774;BME280;59607;52.130;5.430;2023-03-13T02:54:09;99850.91;;;10.14;100.00
71774;BME280;59607;52.130;5.430;2023-03-13T02:56:41;99834.03;;;10.17;100.00
71774;BME280;59607;52.130;5.430;2023-03-13T02:59:12;99834.63;;;10.19;100.00
71774;BME280;59607;52.130;5.430;2023-03-13T03:01:38;99834.88;;;10.24;100.00
71774;BME280;59607;52.130;5.430;2023-03-13T03:04:05;99835.16;;;10.29;100.00
71774;BME280;59607;52.130;5.430;2023-03-13T03:06:35;99834.41;;;10.35;100.00
71774;BME280;59607;52.130;5.430;2023-03-13T03:09:02;99841.31;;;10.43;100.00
71774;BME280;59607;52.130;5.430;2023-03-13T03:11:40;99857.34;;;10.48;100.00
71774;BME280;59607;52.130;5.430;2023-03-13T03:14:10;99842.84;;;10.53;100.00
71774;BME280;59607;52.130;5.430;2023-03-13T03:16:37;99839.69;;;10.57;100.00
71774;BME280;59607;52.130;5.430;2023-03-13T03:19:07;99841.75;;;10.62;100.00
71774;BME280;59607;52.130;5.430;2023-03-13T03:21:34;99829.88;;;10.66;100.00
71774;BME280;59607;52.130;5.430;2023-03-13T03:24:01;99823.88;;;10.72;100.00
71774;BME280;59607;52.130;5.430;2023-03-13T03:26:31;99824.94;;;10.78;100.00
71774;BME280;59607;52.130;5.430;2023-03-13T03:29:04;99832.88;;;10.85;100.00
71774;BME280;59607;52.130;5.430;2023-03-13T03:31:34;99817.75;;;10.87;100.00
71774;BME280;59607;52.130;5.430;2023-03-13T03:34:03;99811.91;;;10.92;100.00
71774;BME280;59607;52.130;5.430;2023-03-13T03:36:33;99795.00;;;10.94;100.00
71774;BME280;59607;52.130;5.430;2023-03-13T03:39:00;99791.59;;;11.01;100.00
71774;BME280;59607;52.130;5.430;2023-03-13T03:41:34;99800.31;;;11.08;100.00
71774;BME280;59607;52.130;5.430;2023-03-13T03:44:07;99801.78;;;11.10;100.00
71774;BME280;59607;52.130;5.430;2023-03-13T03:46:36;99815.13;;;11.16;100.00
71774;BME280;59607;52.130;5.430;2023-03-13T03:49:03;99813.28;;;11.16;100.00
71774;BME280;59607;52.130;5.430;2023-03-13T03:51:35;99811.09;;;11.20;100.00
71774;BME280;59607;52.130;5.430;2023-03-13T03:54:05;99793.97;;;11.24;100.00
71774;BME280;59607;52.130;5.430;2023-03-13T03:56:32;99796.03;;;11.29;100.00
71774;BME280;59607;52.130;5.430;2023-03-13T03:59:12;99785.94;;;11.32;100.00
71774;BME280;59607;52.130;5.430;2023-03-13T04:01:39;99794.00;;;11.31;100.00
71774;BME280;59607;52.130;5.430;2023-03-13T04:04:05;99783.31;;;11.32;100.00
71774;BME280;59607;52.130;5.430;2023-03-13T04:06:32;99790.41;;;11.39;100.00
71774;BME280;59607;52.130;5.430;2023-03-13T04:08:58;99789.81;;;11.37;100.00
71774;BME280;59607;52.130;5.430;2023-03-13T04:11:30;99782.53;;;11.39;100.00
71774;BME280;59607;52.130;5.430;2023-03-13T04:13:56;99782.97;;;11.42;100.00
71774;BME280;59607;52.130;5.430;2023-03-13T04:16:23;99782.75;;;11.44;100.00
71774;BME280;59607;52.130;5.430;2023-03-13T04:18:52;99774.28;;;11.48;100.00
71774;BME280;59607;52.130;5.430;2023-03-13T04:21:19;99759.16;;;11.51;100.00
71774;BME280;59607;52.130;5.430;2023-03-13T04:23:45;99767.47;;;11.54;100.00
71774;BME280;59607;52.130;5.430;2023-03-13T04:26:17;99753.94;;;11.57;100.00
71774;BME280;59607;52.130;5.430;2023-03-13T04:28:44;99759.03;;;11.66;100.00
71774;BME280;59607;52.130;5.430;2023-03-13T04:31:13;99749.72;;;11.63;100.00
71774;BME280;59607;52.130;5.430;2023-03-13T04:33:40;99739.00;;;11.65;100.00
71774;BME280;59607;52.130;5.430;2023-03-13T04:36:07;99740.66;;;11.66;100.00
71774;BME280;59607;52.130;5.430;2023-03-13T04:38:33;99738.59;;;11.68;100.00
71774;BME280;59607;52.130;5.430;2023-03-13T04:41:04;99732.38;;;11.69;100.00
71774;BME280;59607;52.130;5.430;2023-03-13T04:43:30;99722.28;;;11.72;100.00
71774;BME280;59607;52.130;5.430;2023-03-13T04:45:57;99717.41;;;11.76;100.00
71774;BME280;59607;52.130;5.430;2023-03-13T04:48:27;99714.78;;;11.76;100.00
71774;BME280;59607;52.130;5.430;2023-03-13T04:50:54;99714.38;;;11.79;100.00
71774;BME280;59607;52.130;5.430;2023-03-13T04:53:20;99707.34;;;11.80;100.00
71774;BME280;59607;52.130;5.430;2023-03-13T04:56:01;99719.09;;;11.84;100.00
71774;BME280;59607;52.130;5.430;2023-03-13T04:58:35;99711.00;;;11.85;100.00
71774;BME280;59607;52.130;5.430;2023-03-13T05:01:02;99719.47;;;11.88;100.00
71774;BME280;59607;52.130;5.430;2023-03-13T05:03:31;99712.00;;;11.91;100.00
71774;BME280;59607;52.130;5.430;2023-03-13T05:05:57;99701.91;;;11.95;100.00
71774;BME280;59607;52.130;5.430;2023-03-13T05:08:24;99706.97;;;11.96;100.00
71774;BME280;59607;52.130;5.430;2023-03-13T05:10:53;99712.03;;;11.98;100.00
71774;BME280;59607;52.130;5.430;2023-03-13T05:13:23;99704.56;;;12.02;100.00
71774;BME280;59607;52.130;5.430;2023-03-13T05:15:49;99712.03;;;12.05;100.00
71774;BME280;59607;52.130;5.430;2023-03-13T05:18:17;99707.56;;;12.05;100.00
71774;BME280;59607;52.130;5.430;2023-03-13T05:20:46;99704.19;;;12.12;100.00
71774;BME280;59607;52.130;5.430;2023-03-13T05:23:13;99703.16;;;12.13;100.00
71774;BME280;59607;52.130;5.430;2023-03-13T05:25:47;99704.00;;;12.13;100.00
71774;BME280;59607;52.130;5.430;2023-03-13T05:28:13;99697.31;;;12.17;100.00
71774;BME280;59607;52.130;5.430;2023-03-13T05:31:06;99689.41;;;12.17;100.00
71774;BME280;59607;52.130;5.430;2023-03-13T05:33:35;99675.06;;;12.20;100.00
71774;BME280;59607;52.130;5.430;2023-03-13T05:36:01;99699.94;;;12.24;100.00
71774;BME280;59607;52.130;5.430;2023-03-13T05:38:34;99701.97;;;12.29;100.00
71774;BME280;59607;52.130;5.430;2023-03-13T05:41:01;99689.84;;;12.28;100.00
71774;BME280;59607;52.130;5.430;2023-03-13T05:43:29;99685.97;;;12.24;100.00
71774;BME280;59607;52.130;5.430;2023-03-13T05:45:59;99692.84;;;12.31;100.00
71774;BME280;59607;52.130;5.430;2023-03-13T05:48:26;99694.88;;;12.36;100.00
71774;BME280;59607;52.130;5.430;2023-03-13T05:51:09;99679.50;;;12.46;100.00
71774;BME280;59607;52.130;5.430;2023-03-13T05:53:49;99694.47;;;12.46;100.00
71774;BME280;59607;52.130;5.430;2023-03-13T05:56:18;99658.47;;;12.46;100.00
71774;BME280;59607;52.130;5.430;2023-03-13T05:58:44;99664.13;;;12.50;100.00
71774;BME280;59607;52.130;5.430;2023-03-13T06:01:12;99662.91;;;12.53;100.00
71774;BME280;59607;52.130;5.430;2023-03-13T06:03:41;99671.19;;;12.56;100.00
71774;BME280;59607;52.130;5.430;2023-03-13T06:06:08;99678.69;;;12.53;100.00
71774;BME280;59607;52.130;5.430;2023-03-13T06:08:34;99659.06;;;12.49;100.00
71774;BME280;59607;52.130;5.430;2023-03-13T06:11:01;99646.91;;;12.48;100.00
71774;BME280;59607;52.130;5.430;2023-03-13T06:13:34;99637.81;;;12.50;100.00
71774;BME280;59607;52.130;5.430;2023-03-13T06:16:01;99659.25;;;12.54;100.00
71774;BME280;59607;52.130;5.430;2023-03-13T06:18:35;99647.31;;;12.51;100.00
71774;BME280;59607;52.130;5.430;2023-03-13T06:21:02;99656.81;;;12.52;100.00
71774;BME280;59607;52.130;5.430;2023-03-13T06:23:37;99632.56;;;12.50;100.00
71774;BME280;59607;52.130;5.430;2023-03-13T06:26:03;99653.19;;;12.53;100.00
71774;BME280;59607;52.130;5.430;2023-03-13T06:28:36;99657.03;;;12.51;100.00
71774;BME280;59607;52.130;5.430;2023-03-13T06:31:06;99647.13;;;12.53;100.00
71774;BME280;59607;52.130;5.430;2023-03-13T06:33:38;99668.78;;;12.55;100.00
71774;BME280;59607;52.130;5.430;2023-03-13T06:36:09;99645.50;;;12.58;100.00
71774;BME280;59607;52.130;5.430;2023-03-13T06:38:41;99650.16;;;12.63;100.00
71774;BME280;59607;52.130;5.430;2023-03-13T06:41:10;99661.84;;;12.67;100.00
71774;BME280;59607;52.130;5.430;2023-03-13T06:43:39;99650.53;;;12.67;100.00
71774;BME280;59607;52.130;5.430;2023-03-13T06:46:18;99657.22;;;12.69;100.00
71774;BME280;59607;52.130;5.430;2023-03-13T06:48:51;99651.13;;;12.76;100.00
71774;BME280;59607;52.130;5.430;2023-03-13T06:51:20;99659.63;;;12.78;100.00
71774;BME280;59607;52.130;5.430;2023-03-13T06:53:53;99640.81;;;12.74;100.00
71774;BME280;59607;52.130;5.430;2023-03-13T06:56:19;99651.31;;;12.81;100.00
71774;BME280;59607;52.130;5.430;2023-03-13T06:58:48;99647.66;;;12.82;100.00
71774;BME280;59607;52.130;5.430;2023-03-13T07:01:17;99666.06;;;12.82;100.00
71774;BME280;59607;52.130;5.430;2023-03-13T07:03:46;99666.28;;;12.80;100.00
71774;BME280;59607;52.130;5.430;2023-03-13T07:06:27;99658.38;;;12.80;100.00
71774;BME280;59607;52.130;5.430;2023-03-13T07:08:56;99652.72;;;12.83;100.00
71774;BME280;59607;52.130;5.430;2023-03-13T07:11:22;99661.44;;;12.84;100.00
71774;BME280;59607;52.130;5.430;2023-03-13T07:13:48;99668.91;;;12.80;100.00
71774;BME280;59607;52.130;5.430;2023-03-13T07:16:15;99655.16;;;12.78;100.00
71774;BME280;59607;52.130;5.430;2023-03-13T07:18:47;99657.56;;;12.80;100.00
71774;BME280;59607;52.130;5.430;2023-03-13T07:21:14;99653.97;;;12.74;100.00
71774;BME280;59607;52.130;5.430;2023-03-13T07:23:41;99679.88;;;12.70;100.00
71774;BME280;59607;52.130;5.430;2023-03-13T07:26:12;99670.78;;;12.66;100.00
71774;BME280;59607;52.130;5.430;2023-03-13T07:28:40;99655.78;;;12.67;100.00
71774;BME280;59607;52.130;5.430;2023-03-13T07:31:14;99670.16;;;12.64;100.00
71774;BME280;59607;52.130;5.430;2023-03-13T07:33:45;99663.31;;;12.63;100.00
71774;BME280;59607;52.130;5.430;2023-03-13T07:36:24;99671.81;;;12.58;100.00
71774;BME280;59607;52.130;5.430;2023-03-13T07:38:51;99679.50;;;12.53;100.00
71774;BME280;59607;52.130;5.430;2023-03-13T07:41:18;99678.47;;;12.48;100.00
71774;BME280;59607;52.130;5.430;2023-03-13T07:43:48;99685.56;;;12.40;100.00
71774;BME280;59607;52.130;5.430;2023-03-13T07:46:16;99690.22;;;12.31;100.00
71774;BME280;59607;52.130;5.430;2023-03-13T07:48:47;99695.09;;;12.28;100.00
71774;BME280;59607;52.130;5.430;2023-03-13T07:51:23;99683.97;;;12.26;100.00
71774;BME280;59607;52.130;5.430;2023-03-13T07:54:07;99693.66;;;12.25;100.00
71774;BME280;59607;52.130;5.430;2023-03-13T07:56:34;99713.09;;;12.24;100.00
71774;BME280;59607;52.130;5.430;2023-03-13T07:59:07;99693.47;;;12.27;100.00
71774;BME280;59607;52.130;5.430;2023-03-13T08:01:37;99684.59;;;12.28;100.00
71774;BME280;59607;52.130;5.430;2023-03-13T08:04:22;99711.47;;;12.30;100.00
71774;BME280;59607;52.130;5.430;2023-03-13T08:06:52;99695.28;;;12.33;100.00
71774;BME280;59607;52.130;5.430;2023-03-13T08:09:20;99681.13;;;12.41;100.00
71774;BME280;59607;52.130;5.430;2023-03-13T08:11:53;99683.75;;;12.48;100.00
71774;BME280;59607;52.130;5.430;2023-03-13T08:14:19;99706.00;;;12.52;100.00
71774;BME280;59607;52.130;5.430;2023-03-13T08:16:46;99699.94;;;12.44;100.00
71774;BME280;59607;52.130;5.430;2023-03-13T08:19:26;99697.28;;;12.38;100.00
71774;BME280;59607;52.130;5.430;2023-03-13T08:21:53;99684.97;;;12.38;100.00
71774;BME280;59607;52.130;5.430;2023-03-13T08:24:19;99686.59;;;12.32;100.00
71774;BME280;59607;52.130;5.430;2023-03-13T08:26:46;99692.84;;;12.31;100.00
71774;BME280;59607;52.130;5.430;2023-03-13T08:29:18;99669.38;;;12.23;100.00
71774;BME280;59607;52.130;5.430;2023-03-13T08:31:48;99684.56;;;12.21;100.00
71774;BME280;59607;52.130;5.430;2023-03-13T08:34:18;99673.66;;;12.24;100.00
71774;BME280;59607;52.130;5.430;2023-03-13T08:36:48;99659.69;;;12.30;100.00
71774;BME280;59607;52.130;5.430;2023-03-13T08:39:16;99656.03;;;12.38;100.00
71774;BME280;59607;52.130;5.430;2023-03-13T08:41:57;99659.69;;;12.37;100.00
71774;BME280;59607;52.130;5.430;2023-03-13T08:44:23;99656.25;;;12.50;100.00
71774;BME280;59607;52.130;5.430;2023-03-13T08:46:53;99628.50;;;12.54;100.00
71774;BME280;59607;52.130;5.430;2023-03-13T08:49:23;99662.50;;;12.56;100.00
71774;BME280;59607;52.130;5.430;2023-03-13T08:51:49;99640.25;;;12.52;100.00
71774;BME280;59607;52.130;5.430;2023-03-13T08:54:26;99637.81;;;12.57;100.00
71774;BME280;59607;52.130;5.430;2023-03-13T08:56:57;99622.63;;;12.59;100.00
71774;BME280;59607;52.130;5.430;2023-03-13T08:59:30;99628.91;;;12.65;100.00
71774;BME280;59607;52.130;5.430;2023-03-13T09:02:00;99634.34;;;12.70;100.00
71774;BME280;59607;52.130;5.430;2023-03-13T09:04:28;99636.94;;;12.77;100.00
71774;BME280;59607;52.130;5.430;2023-03-13T09:07:06;99632.50;;;12.77;100.00
71774;BME280;59607;52.130;5.430;2023-03-13T09:09:32;99641.00;;;12.79;100.00
71774;BME280;59607;52.130;5.430;2023-03-13T09:11:59;99634.72;;;12.74;100.00
71774;BME280;59607;52.130;5.430;2023-03-13T09:14:29;99642.38;;;12.89;100.00
71774;BME280;59607;52.130;5.430;2023-03-13T09:16:56;99623.31;;;13.00;100.00
71774;BME280;59607;52.130;5.430;2023-03-13T09:19:30;99606.47;;;13.08;100.00
71774;BME280;59607;52.130;5.430;2023-03-13T09:21:57;99618.91;;;13.33;100.00
71774;BME280;59607;52.130;5.430;2023-03-13T09:24:30;99609.69;;;13.56;100.00
71774;BME280;59607;52.130;5.430;2023-03-13T09:26:57;99609.09;;;13.79;100.00
71774;BME280;59607;52.130;5.430;2023-03-13T09:29:26;99603.88;;;13.98;100.00
71774;BME280;59607;52.130;5.430;2023-03-13T09:31:53;99586.22;;;13.99;100.00
71774;BME280;59607;52.130;5.430;2023-03-13T09:34:20;99582.88;;;14.10;100.00
71774;BME280;59607;52.130;5.430;2023-03-13T09:36:58;99592.44;;;14.30;100.00
71774;BME280;59607;52.130;5.430;2023-03-13T09:39:24;99578.00;;;14.32;100.00
71774;BME280;59607;52.130;5.430;2023-03-13T09:42:20;99568.47;;;14.31;100.00
71774;BME280;59607;52.130;5.430;2023-03-13T09:45:10;99587.59;;;14.27;100.00
71774;BME280;59607;52.130;5.430;2023-03-13T09:47:56;99571.13;;;14.31;100.00
71774;BME280;59607;52.130;5.430;2023-03-13T09:50:39;99569.75;;;14.29;100.00
71774;BME280;59607;52.130;5.430;2023-03-13T09:53:34;99563.94;;;14.20;100.00
71774;BME280;59607;52.130;5.430;2023-03-13T09:56:33;99559.19;;;14.29;100.00
71774;BME280;59607;52.130;5.430;2023-03-13T09:59:12;99541.75;;;14.47;99.96
71774;BME280;59607;52.130;5.430;2023-03-13T10:01:45;99545.25;;;14.59;100.00
71774;BME280;59607;52.130;5.430;2023-03-13T10:04:38;99540.25;;;14.69;100.00
71774;BME280;59607;52.130;5.430;2023-03-13T10:07:13;99549.94;;;14.76;98.14
71774;BME280;59607;52.130;5.430;2023-03-13T10:09:39;99542.88;;;14.88;98.16
71774;BME280;59607;52.130;5.430;2023-03-13T10:12:22;99518.88;;;15.21;94.19
71774;BME280;59607;52.130;5.430;2023-03-13T10:15:20;99537.75;;;15.36;95.97
71774;BME280;59607;52.130;5.430;2023-03-13T10:17:48;99528.13;;;15.42;90.79
71774;BME280;59607;52.130;5.430;2023-03-13T10:20:23;99526.16;;;15.37;92.59
71774;BME280;59607;52.130;5.430;2023-03-13T10:22:55;99512.78;;;15.20;88.52
71774;BME280;59607;52.130;5.430;2023-03-13T10:25:47;99514.88;;;15.18;90.08
71774;BME280;59607;52.130;5.430;2023-03-13T10:28:16;99528.06;;;15.18;89.77
71774;BME280;59607;52.130;5.430;2023-03-13T10:31:12;99495.84;;;15.52;89.19
71774;BME280;59607;52.130;5.430;2023-03-13T10:34:12;99506.16;;;15.41;87.68
71774;BME280;59607;52.130;5.430;2023-03-13T10:36:56;99524.53;;;15.36;87.23
71774;BME280;59607;52.130;5.430;2023-03-13T10:39:38;99518.47;;;15.36;87.13
71774;BME280;59607;52.130;5.430;2023-03-13T10:42:30;99547.72;;;15.22;88.99
71774;BME280;59607;52.130;5.430;2023-03-13T10:45:00;99509.63;;;15.42;87.46
71774;BME280;59607;52.130;5.430;2023-03-13T10:47:41;99532.44;;;15.36;86.90
71774;BME280;59607;52.130;5.430;2023-03-13T10:50:22;99508.00;;;15.29;84.42
71774;BME280;59607;52.130;5.430;2023-03-13T10:52:56;99538.78;;;15.35;84.86
71774;BME280;59607;52.130;5.430;2023-03-13T10:55:24;99515.09;;;15.28;83.02
71774;BME280;59607;52.130;5.430;2023-03-13T10:58:01;99529.56;;;15.26;83.47
71774;BME280;59607;52.130;5.430;2023-03-13T11:03:25;99498.25;;;15.29;85.80
71774;BME280;59607;52.130;5.430;2023-03-13T11:06:27;99503.53;;;15.53;83.35
71774;BME280;59607;52.130;5.430;2023-03-13T11:11:49;99483.53;;;15.82;77.75
71774;BME280;59607;52.130;5.430;2023-03-13T11:14:23;99496.06;;;16.10;76.24
71774;BME280;59607;52.130;5.430;2023-03-13T11:17:08;99420.78;;;16.01;72.23
71774;BME280;59607;52.130;5.430;2023-03-13T11:20:06;99463.31;;;15.87;73.22
71774;BME280;59607;52.130;5.430;2023-03-13T11:22:59;99459.72;;;15.82;72.63
71774;BME280;59607;52.130;5.430;2023-03-13T11:31:58;99443.75;;;16.41;70.42
71774;BME280;59607;52.130;5.430;2023-03-13T11:34:49;99453.00;;;16.56;70.78
71774;BME280;59607;52.130;5.430;2023-03-13T11:37:21;99429.13;;;16.68;68.64
71774;BME280;59607;52.130;5.430;2023-03-13T11:40:02;99430.50;;;16.71;66.25
71774;BME280;59607;52.130;5.430;2023-03-13T11:48:34;99423.28;;;16.66;67.42
71774;BME280;59607;52.130;5.430;2023-03-13T11:51:31;99451.28;;;16.62;69.13
71774;BME280;59607;52.130;5.430;2023-03-13T11:56:55;99416.38;;;16.82;66.69
71774;BME280;59607;52.130;5.430;2023-03-13T11:59:37;99429.56;;;16.94;65.75
71774;BME280;59607;52.130;5.430;2023-03-13T12:02:49;99438.97;;;16.85;66.82
71774;BME280;59607;52.130;5.430;2023-03-13T12:05:20;99445.59;;;16.87;65.92
71774;BME280;59607;52.130;5.430;2023-03-13T12:08:01;99441.03;;;16.83;66.87
71774;BME280;59607;52.130;5.430;2023-03-13T12:10:40;99420.78;;;16.59;67.02
71774;BME280;59607;52.130;5.430;2023-03-13T12:15:45;99435.69;;;17.12;65.88
71774;BME280;59607;52.130;5.430;2023-03-13T12:18:30;99426.28;;;17.21;66.30
71774;BME280;59607;52.130;5.430;2023-03-13T12:21:27;99430.13;;;17.31;64.31
71774;BME280;59607;52.130;5.430;2023-03-13T12:26:50;99415.56;;;17.11;59.30
71774;BME280;59607;52.130;5.430;2023-03-13T12:29:57;99427.94;;;16.76;61.42
71774;BME280;59607;52.130;5.430;2023-03-13T12:32:39;99420.81;;;16.76;61.43
71774;BME280;59607;52.130;5.430;2023-03-13T12:40:27;99415.66;;;16.70;59.11
71774;BME280;59607;52.130;5.430;2023-03-13T12:45:37;99411.19;;;16.70;58.62
71774;BME280;59607;52.130;5.430;2023-03-13T12:48:30;99417.91;;;16.78;58.42
71774;BME280;59607;52.130;5.430;2023-03-13T12:59:34;99419.84;;;16.36;61.37
71774;BME280;59607;52.130;5.430;2023-03-13T13:02:19;99388.34;;;16.35;62.04
71774;BME280;59607;52.130;5.430;2023-03-13T13:04:49;99409.41;;;16.30;62.01
71774;BME280;59607;52.130;5.430;2023-03-13T13:07:29;99383.44;;;16.26;62.13
71774;BME280;59607;52.130;5.430;2023-03-13T13:12:38;99376.00;;;16.11;62.68
71774;BME280;59607;52.130;5.430;2023-03-13T13:15:29;99355.78;;;16.05;63.31
71774;BME280;59607;52.130;5.430;2023-03-13T13:18:12;99357.59;;;16.16;63.51
71774;BME280;59607;52.130;5.430;2023-03-13T13:23:42;99362.78;;;16.11;64.59
71774;BME280;59607;52.130;5.430;2023-03-13T13:26:37;99352.88;;;16.19;65.51
71774;BME280;59607;52.130;5.430;2023-03-13T13:31:57;99361.97;;;16.11;65.66
71774;BME280;59607;52.130;5.430;2023-03-13T13:34:54;99345.31;;;16.10;65.47
71774;BME280;59607;52.130;5.430;2023-03-13T13:37:25;99360.50;;;16.03;65.70
71774;BME280;59607;52.130;5.430;2023-03-13T13:40:27;99314.06;;;16.07;64.53
71774;BME280;59607;52.130;5.430;2023-03-13T13:43:04;99345.44;;;16.03;62.00
71774;BME280;59607;52.130;5.430;2023-03-13T13:45:56;99350.59;;;16.10;61.78
71774;BME280;59607;52.130;5.430;2023-03-13T13:48:28;99366.88;;;16.19;59.22
71774;BME280;59607;52.130;5.430;2023-03-13T13:53:59;99329.59;;;16.21;58.17
71774;BME280;59607;52.130;5.430;2023-03-13T13:56:51;99370.81;;;16.16;58.46
71774;BME280;59607;52.130;5.430;2023-03-13T13:59:26;99361.94;;;16.23;58.31
71774;BME280;59607;52.130;5.430;2023-03-13T14:02:11;99361.50;;;16.14;59.03
71774;BME280;59607;52.130;5.430;2023-03-13T14:05:06;99364.31;;;16.07;59.67
71774;BME280;59607;52.130;5.430;2023-03-13T14:08:07;99356.91;;;16.09;59.23
71774;BME280;59607;52.130;5.430;2023-03-13T14:10:44;99351.38;;;16.11;58.59
71774;BME280;59607;52.130;5.430;2023-03-13T14:13:19;99329.31;;;16.17;58.43
71774;BME280;59607;52.130;5.430;2023-03-13T14:15:55;99346.19;;;16.16;58.02
71774;BME280;59607;52.130;5.430;2023-03-13T14:18:49;99341.44;;;16.01;58.87
71774;BME280;59607;52.130;5.430;2023-03-13T14:21:42;99353.66;;;16.19;58.59
71774;BME280;59607;52.130;5.430;2023-03-13T14:24:13;99345.34;;;16.27;58.78